createdAt,value
2016-04-13T08:51:49.632Z,4052
2016-04-13T08:52:49.571Z,3940
2016-04-13T08:53:49.637Z,4268
2016-04-13T08:54:49.530Z,5784
2016-04-13T08:55:49.549Z,6848
2016-04-13T08:56:49.505Z,6608
2016-04-13T08:57:49.491Z,6576
2016-04-13T08:58:49.494Z,7412
2016-04-13T08:59:49.512Z,7988
2016-04-13T09:00:49.468Z,7564
2016-04-13T09:01:49.440Z,7288
2016-04-13T09:02:49.426Z,7212
2016-04-13T09:03:49.257Z,6696
2016-04-13T09:04:49.400Z,6360
2016-04-13T09:05:49.372Z,5964
2016-04-13T09:06:49.375Z,4864
2016-04-13T09:07:49.425Z,3892
2016-04-13T09:08:49.333Z,2900
2016-04-13T09:09:49.320Z,2428
2016-04-13T09:10:49.323Z,2472
2016-04-13T09:11:49.310Z,3368
2016-04-13T09:12:49.281Z,3280
2016-04-13T09:13:49.284Z,3236
2016-04-13T09:14:49.256Z,3236
2016-04-13T09:15:49.227Z,3220
2016-04-13T09:16:49.230Z,3308
2016-04-13T09:17:49.232Z,3420
2016-04-13T09:18:49.235Z,3688
2016-04-13T09:19:49.175Z,4416
2016-04-13T09:20:49.178Z,5344
2016-04-13T09:21:49.150Z,4252
2016-04-13T09:22:49.136Z,3696
2016-04-13T09:23:49.124Z,3608
2016-04-13T09:24:49.110Z,3652
2016-04-13T09:25:49.082Z,3696
2016-04-13T09:26:49.116Z,3228
2016-04-13T09:27:49.072Z,3392
2016-04-13T09:28:49.044Z,3716
2016-04-13T09:29:49.046Z,3752
2016-04-13T09:30:49.143Z,3828
2016-04-13T09:31:49.004Z,3980
2016-04-13T09:32:48.976Z,4232
2016-04-13T09:33:48.978Z,4744
2016-04-13T09:34:48.950Z,5664
2016-04-13T09:35:48.968Z,7120
2016-04-13T09:36:48.939Z,8368
2016-04-13T09:37:48.927Z,7288
2016-04-13T09:38:49.008Z,6608
2016-04-13T09:39:48.886Z,6064
2016-04-13T09:40:48.888Z,7196
2016-04-13T09:41:48.859Z,7556
2016-04-13T09:42:48.847Z,8576
2016-04-13T09:43:48.880Z,10064
2016-04-13T09:44:48.883Z,13152
2016-04-13T09:45:48.823Z,14564
2016-04-13T09:46:48.779Z,12856
2016-04-13T09:47:48.782Z,10904
2016-04-13T09:48:48.769Z,10236
2016-04-13T09:49:48.772Z,9696
2016-04-13T09:50:48.728Z,9020
2016-04-13T09:51:48.714Z,7044
2016-04-13T09:52:48.717Z,7120
2016-04-13T09:53:48.688Z,7172
2016-04-13T09:54:48.760Z,7792
2016-04-13T09:55:48.720Z,7396
2016-04-13T09:56:48.504Z,8080
2016-04-13T09:57:48.647Z,9532
2016-04-13T09:58:48.947Z,9160
2016-04-13T09:59:48.606Z,8952
2016-04-13T10:00:48.614Z,9676
2016-04-13T10:01:48.586Z,10536
2016-04-13T10:02:48.574Z,12208
2016-04-13T10:03:48.592Z,13720
2016-04-13T10:04:48.414Z,12496
2016-04-13T10:05:48.417Z,10080
2016-04-13T10:06:48.387Z,8008
2016-04-13T10:07:48.531Z,6148
2016-04-13T10:08:48.502Z,4968
2016-04-13T10:09:48.473Z,4024
2016-04-13T10:10:48.492Z,3532
2016-04-13T10:11:48.464Z,4012
2016-04-13T10:12:58.794Z,4672
2016-04-13T10:14:14.641Z,4596
2016-04-13T10:15:08.675Z,5592
2016-04-13T10:16:07.802Z,5892
2016-04-13T10:16:48.400Z,5160
2016-04-13T10:17:48.402Z,5420
2016-04-13T10:18:48.373Z,6700
2016-04-13T10:19:48.361Z,7616
2016-04-13T10:20:48.332Z,13808
2016-04-13T10:21:48.303Z,15120
2016-04-13T10:22:48.228Z,12068
2016-04-13T10:23:48.293Z,12040
2016-04-13T10:24:48.280Z,21024
2016-04-13T10:25:48.267Z,25056
2016-04-13T10:26:48.269Z,19584
2016-04-13T10:27:48.226Z,17536
2016-04-13T10:28:48.229Z,16624
2016-04-13T10:29:48.216Z,13384
2016-04-13T10:30:48.225Z,13032
2016-04-13T10:31:48.212Z,15732
2016-04-13T10:32:47.871Z,6872
2016-04-13T10:33:48.280Z,6240
2016-04-13T10:34:48.142Z,7184
2016-04-13T10:35:48.161Z,11500
2016-04-13T10:36:48.194Z,13376
2016-04-13T10:37:48.041Z,11184
2016-04-13T10:38:48.089Z,16040
2016-04-13T10:39:48.092Z,15100
2016-04-13T10:40:48.062Z,21216
2016-04-13T10:41:48.097Z,18432
2016-04-13T10:42:48.021Z,13540
2016-04-13T10:43:48.056Z,18272
2016-04-13T10:44:48.011Z,19840
2016-04-13T10:45:47.872Z,9784
2016-04-13T10:46:48.016Z,12932
2016-04-13T10:47:47.972Z,20288
2016-04-13T10:48:47.975Z,16612
2016-04-13T10:49:47.946Z,22272
2016-04-13T10:50:47.949Z,18400
2016-04-13T10:51:47.935Z,12248
2016-04-13T10:52:48.204Z,47488
2016-04-13T10:53:47.894Z,50432
2016-04-13T10:54:47.913Z,9408
2016-04-13T10:55:53.010Z,47392
2016-04-13T10:57:04.933Z,44256
2016-04-13T10:58:28.140Z,45696
2016-04-13T10:58:57.283Z,50464
2016-04-13T11:00:10.457Z,82784
2016-04-13T11:01:20.985Z,119616
2016-04-13T11:02:09.205Z,50528
2016-04-13T11:02:59.627Z,96448
2016-04-13T11:04:15.547Z,20992
2016-04-13T11:06:03.181Z,122976
2016-04-13T11:06:50.119Z,126688
2016-04-13T11:08:03.012Z,130784
2016-04-13T11:09:57.252Z,117504
2016-04-13T11:11:03.209Z,11372
2016-04-13T11:12:17.492Z,43584
2016-04-13T11:13:26.188Z,15516
2016-04-13T11:14:29.679Z,47648
2016-04-13T11:15:24.172Z,101024
2016-04-13T11:16:36.849Z,12664
2016-04-13T11:17:36.636Z,63424
2016-04-13T11:18:46.077Z,126112
2016-04-13T11:19:30.316Z,75200
2016-04-13T11:20:20.462Z,74304
2016-04-13T11:22:09.121Z,25600
2016-04-13T11:22:36.749Z,13876
2016-04-13T11:23:26.894Z,15752
2016-04-13T11:24:25.789Z,15132
2016-04-13T11:25:25.760Z,26816
2016-04-13T11:26:25.795Z,8420
2016-04-13T11:27:25.766Z,48352
2016-04-13T11:28:25.769Z,14052
2016-04-13T11:29:25.758Z,48320
2016-04-13T11:30:25.745Z,27968
2016-04-13T11:31:25.763Z,39584
2016-04-13T11:32:25.733Z,43424
2016-04-13T11:33:25.753Z,53408
2016-04-13T11:34:25.739Z,21344
2016-04-13T11:35:25.727Z,9496
2016-04-13T11:36:25.730Z,59488
2016-04-13T11:37:25.732Z,54208
2016-04-13T11:38:25.719Z,12020
2016-04-13T11:39:25.737Z,75744
2016-04-13T11:40:25.724Z,33792
2016-04-13T11:41:25.696Z,28800
2016-04-13T11:42:25.698Z,26432
2016-04-13T11:43:25.701Z,10864
2016-04-13T11:44:25.688Z,98816
2016-04-13T11:45:25.675Z,37664
2016-04-13T11:46:25.679Z,21792
2016-04-13T11:47:25.696Z,15456
2016-04-13T11:48:25.684Z,17792
2016-04-13T11:49:25.655Z,100992
2016-04-13T11:50:25.657Z,55072
2016-04-13T11:51:25.659Z,108448
2016-04-13T11:52:25.647Z,98112
2016-04-13T11:53:25.650Z,24896
2016-04-13T11:54:25.637Z,120000
2016-04-13T11:55:25.656Z,111008
2016-04-13T11:56:25.642Z,123168
2016-04-13T11:57:25.630Z,115104
2016-04-13T11:58:25.632Z,13156
2016-04-13T11:59:25.635Z,104960
2016-04-13T12:00:25.638Z,104704
2016-04-13T12:01:25.625Z,112672
2016-04-13T12:02:25.611Z,34112
2016-04-13T12:03:25.614Z,108832
2016-04-13T12:04:25.617Z,111712
2016-04-13T12:05:25.620Z,66944
2016-04-13T12:06:25.607Z,114336
2016-04-13T12:07:25.594Z,115616
2016-04-13T12:08:25.644Z,33088
2016-04-13T12:09:25.647Z,21792
2016-04-13T12:10:25.587Z,117344
2016-04-13T12:11:25.590Z,114976
2016-04-13T12:12:25.624Z,117088
2016-04-13T12:13:25.595Z,20864
2016-04-13T12:14:25.598Z,114976
2016-04-13T12:15:25.586Z,23424
2016-04-13T12:16:25.588Z,109120
2016-04-13T12:17:25.591Z,111520
2016-04-13T12:18:25.577Z,16292
2016-04-13T12:19:25.580Z,119456
2016-04-13T12:20:25.583Z,118528
2016-04-13T12:21:25.585Z,118496
2016-04-13T12:22:25.573Z,91552
2016-04-13T12:23:25.591Z,21600
2016-04-13T12:24:25.593Z,120128
2016-04-13T12:25:25.596Z,103168
2016-04-13T12:26:25.599Z,13688
2016-04-13T12:27:25.587Z,14204
2016-04-13T12:28:25.573Z,103360
2016-04-13T12:29:25.592Z,112864
2016-04-13T12:30:25.595Z,43232
2016-04-13T12:31:25.581Z,14116
2016-04-13T12:32:25.569Z,86048
2016-04-13T12:33:25.571Z,14364
2016-04-13T12:34:25.559Z,123680
2016-04-13T12:35:25.576Z,128320
2016-04-13T12:36:25.578Z,124672
2016-04-13T12:37:25.567Z,103680
2016-04-13T12:38:25.569Z,120224
2016-04-13T12:39:25.556Z,123392
2016-04-13T12:40:25.575Z,10784
2016-04-13T12:41:25.562Z,16096
2016-04-13T12:42:25.580Z,116640
2016-04-13T12:43:25.567Z,109920
2016-04-13T12:44:25.538Z,116640
2016-04-13T12:45:25.556Z,19968
2016-04-13T12:46:25.559Z,17552
2016-04-13T12:47:25.546Z,30240
2016-04-13T12:48:25.549Z,102304
2016-04-13T12:49:25.739Z,105984
2016-04-13T12:50:25.570Z,112928
2016-04-13T12:51:25.527Z,114720
2016-04-13T12:52:25.544Z,123040
2016-04-13T12:53:25.577Z,40512
2016-04-13T12:54:25.534Z,118752
2016-04-13T12:55:25.552Z,38208
2016-04-13T12:56:25.540Z,125408
2016-04-13T12:57:25.527Z,121600
2016-04-13T12:58:25.560Z,116960
2016-04-13T12:59:25.516Z,116576
2016-04-13T13:00:25.534Z,120704
2016-04-13T13:01:25.537Z,46688
2016-04-13T13:02:25.509Z,31584
2016-04-13T13:03:25.527Z,26944
2016-04-13T13:04:25.530Z,94496
2016-04-13T13:05:25.532Z,121824
2016-04-13T13:06:25.503Z,16320
2016-04-13T13:07:25.506Z,122368
2016-04-13T13:08:25.509Z,19200
2016-04-13T13:09:25.512Z,15720
2016-04-13T13:10:25.905Z,102560
2016-04-13T13:11:25.908Z,74080
2016-04-13T13:12:25.503Z,61024
2016-04-13T13:13:25.507Z,24288
2016-04-13T13:14:25.509Z,21664
2016-04-13T13:15:25.512Z,110912
2016-04-13T13:16:25.515Z,108800
2016-04-13T13:17:25.642Z,18752
2016-04-13T13:18:25.505Z,38592
2016-04-13T13:19:25.492Z,65088
2016-04-13T13:20:25.666Z,57312
2016-04-13T13:21:25.497Z,16588
2016-04-13T13:22:25.485Z,15512
2016-04-13T13:23:25.502Z,120992
2016-04-13T13:24:25.521Z,114784
2016-04-13T13:25:25.867Z,111744
2016-04-13T13:26:25.510Z,24960
2016-04-13T13:27:25.498Z,25120
2016-04-13T13:28:25.485Z,116416
2016-04-13T13:29:25.487Z,113920
2016-04-13T13:30:25.662Z,121920
2016-04-13T13:31:25.509Z,19136
2016-04-13T13:32:25.512Z,116576
2016-04-13T13:33:26.639Z,111104
2016-04-13T13:34:25.485Z,115360
2016-04-13T13:35:25.488Z,114912
2016-04-13T13:36:25.507Z,26720
2016-04-13T13:37:25.462Z,16604
2016-04-13T13:38:25.512Z,47200
2016-04-13T13:39:25.483Z,19072
2016-04-13T13:40:25.486Z,114688
2016-04-13T13:41:25.473Z,120736
2016-04-13T13:42:25.506Z,52672
2016-04-13T13:43:25.494Z,28960
2016-04-13T13:44:25.480Z,47584
2016-04-13T13:45:25.468Z,10376
2016-04-13T13:46:25.455Z,23392
2016-04-13T13:47:25.457Z,72192
2016-04-13T13:48:25.460Z,98912
2016-04-13T13:49:25.447Z,16164
2016-04-13T13:50:25.450Z,27552
2016-04-13T13:51:25.437Z,66176
2016-04-13T13:52:25.440Z,42240
2016-04-13T13:53:25.443Z,79552
2016-04-13T13:54:25.430Z,36896
2016-04-13T13:55:25.463Z,38784
2016-04-13T13:56:25.451Z,101888
2016-04-13T13:57:25.438Z,77600
2016-04-13T13:58:25.425Z,35488
2016-04-13T13:59:26.209Z,33952
2016-04-13T14:00:25.430Z,55360
2016-04-13T14:01:25.433Z,18016
2016-04-13T14:02:26.904Z,56288
2016-04-13T14:03:25.423Z,86624
2016-04-13T14:04:25.409Z,112128
2016-04-13T14:05:25.615Z,26848
2016-04-13T14:06:25.399Z,101344
2016-04-13T14:07:25.418Z,104832
2016-04-13T14:08:25.420Z,52672
2016-04-13T14:09:25.407Z,109504
2016-04-13T14:10:25.409Z,13140
2016-04-13T14:11:25.397Z,109728
2016-04-13T14:12:25.401Z,101664
2016-04-13T14:13:25.403Z,106016
2016-04-13T14:14:25.389Z,98016
2016-04-13T14:15:25.392Z,97472
2016-04-13T14:16:25.394Z,20032
2016-04-13T14:17:25.383Z,32800
2016-04-13T14:18:25.400Z,18272
2016-04-13T14:19:25.372Z,110048
2016-04-13T14:20:25.375Z,49888
2016-04-13T14:21:25.378Z,14472
2016-04-13T14:22:25.380Z,14880
2016-04-13T14:23:25.461Z,112256
2016-04-13T14:24:25.385Z,89248
2016-04-13T14:25:25.372Z,25664
2016-04-13T14:26:25.407Z,99008
2016-04-13T14:27:25.363Z,27616
2016-04-13T14:28:25.412Z,36704
2016-04-13T14:29:26.571Z,23200
2016-04-13T14:30:25.401Z,32704
2016-04-13T14:31:25.341Z,83968
2016-04-13T14:32:25.391Z,51200
2016-04-13T14:33:25.346Z,25632
2016-04-13T14:34:25.334Z,46336
2016-04-13T14:35:25.368Z,31616
2016-04-13T14:36:25.323Z,54112
2016-04-13T14:37:25.311Z,36480
2016-04-13T14:38:25.439Z,32928
2016-04-13T14:39:25.329Z,96256
2016-04-13T14:40:25.317Z,98080
2016-04-13T14:41:25.319Z,28736
2016-04-13T14:42:25.291Z,17920
2016-04-13T14:43:25.590Z,27616
2016-04-13T14:44:25.281Z,13724
2016-04-13T14:45:25.314Z,13332
2016-04-13T14:46:25.270Z,107616
2016-04-13T14:47:25.335Z,104640
2016-04-13T14:48:25.275Z,104192
2016-04-13T14:49:25.262Z,8888
2016-04-13T14:50:25.297Z,12404
2016-04-13T14:51:25.267Z,103904
2016-04-13T14:52:25.239Z,17952
2016-04-13T14:53:25.397Z,113792
2016-04-13T14:54:25.219Z,107648
2016-04-13T14:55:25.221Z,105312
2016-04-13T14:56:25.239Z,74016
2016-04-13T14:57:25.429Z,11144
2016-04-13T14:58:25.088Z,103552
2016-04-13T14:59:25.201Z,102464
2016-04-13T15:00:25.219Z,18848
2016-04-13T15:01:25.190Z,46848
2016-04-13T15:02:25.162Z,107808
2016-04-13T15:03:25.180Z,15212
2016-04-13T15:04:25.151Z,107808
2016-04-13T15:05:25.155Z,99904
2016-04-13T15:06:25.141Z,13436
2016-04-13T15:07:25.144Z,42400
2016-04-13T15:08:25.334Z,100576
2016-04-13T15:09:25.134Z,12332
2016-04-13T15:10:25.121Z,15584
2016-04-13T15:11:25.124Z,91936
2016-04-13T15:12:25.126Z,96736
2016-04-13T15:13:25.114Z,93824
2016-04-13T15:14:25.117Z,83200
2016-04-13T15:15:25.103Z,79104
2016-04-13T15:16:24.950Z,28160
2016-04-13T15:17:25.078Z,17600
2016-04-13T15:18:25.084Z,16824
2016-04-13T15:19:25.102Z,102176
2016-04-13T15:20:25.074Z,76416
2016-04-13T15:21:25.076Z,25056
2016-04-13T15:22:25.048Z,10292
2016-04-13T15:23:25.144Z,94304
2016-04-13T15:24:25.069Z,91360
2016-04-13T15:25:25.056Z,81856
2016-04-13T15:26:25.043Z,88096
2016-04-13T15:27:25.046Z,87616
2016-04-13T15:28:25.032Z,10760
2016-04-13T15:29:25.020Z,18848
2016-04-13T15:30:25.053Z,12448
2016-04-13T15:31:25.025Z,55232
2016-04-13T15:32:25.059Z,47680
2016-04-13T15:33:25.062Z,20768
2016-04-13T15:34:25.002Z,13284
2016-04-13T15:35:25.005Z,14016
2016-04-13T15:36:25.147Z,15004
2016-04-13T15:37:25.025Z,17600
2016-04-13T15:38:26.013Z,19648
2016-04-13T15:39:25.453Z,15516
2016-04-13T15:40:24.971Z,16488
2016-04-13T15:41:25.005Z,8476
2016-04-13T15:42:24.804Z,10904
2016-04-13T15:43:25.026Z,15676
2016-04-13T15:44:24.935Z,14560
2016-04-13T15:45:24.922Z,12128
2016-04-13T15:46:24.924Z,11712
2016-04-13T15:47:24.912Z,10604
2016-04-13T15:48:24.899Z,10404
2016-04-13T15:49:24.886Z,14276
2016-04-13T15:50:24.904Z,13112
2016-04-13T15:51:24.891Z,16476
2016-04-13T15:52:24.879Z,17728
2016-04-13T15:53:24.943Z,12356
2016-04-13T15:54:24.852Z,9724
2016-04-13T15:55:24.855Z,9248
2016-04-13T15:56:24.827Z,11504
2016-04-13T15:57:24.829Z,9860
2016-04-13T15:58:24.817Z,11648
2016-04-13T15:59:24.804Z,7912
2016-04-13T16:00:24.807Z,7792
2016-04-13T16:01:24.809Z,11540
2016-04-13T16:02:24.781Z,7332
2016-04-13T16:03:24.751Z,10432
2016-04-13T16:04:24.786Z,10368
2016-04-13T16:05:25.272Z,8772
2016-04-13T16:06:25.213Z,10436
2016-04-13T16:07:25.497Z,8680
2016-04-13T16:08:25.265Z,12324
2016-04-13T16:09:24.705Z,10760
2016-04-13T16:10:24.692Z,7304
2016-04-13T16:11:24.679Z,8680
2016-04-13T16:12:24.666Z,10300
2016-04-13T16:13:24.669Z,9928
2016-04-13T16:14:24.656Z,11008
2016-04-13T16:15:24.658Z,10300
2016-04-13T16:16:24.630Z,7904
2016-04-13T16:17:24.618Z,7284
2016-04-13T16:18:24.635Z,6480
2016-04-13T16:19:24.607Z,4872
2016-04-13T16:20:24.626Z,10568
2016-04-13T16:21:24.581Z,9136
2016-04-13T16:22:24.584Z,7328
2016-04-13T16:23:24.587Z,9316
2016-04-13T16:24:24.557Z,7520
2016-04-13T16:25:24.529Z,9648
2016-04-13T16:26:24.548Z,11256
2016-04-13T16:27:24.503Z,6928
2016-04-13T16:28:24.506Z,8536
2016-04-13T16:29:24.493Z,7020
2016-04-13T16:30:24.481Z,9244
2016-04-13T16:31:24.451Z,9080
2016-04-13T16:32:24.454Z,9012
2016-04-13T16:33:24.442Z,12164
2016-04-13T16:34:24.444Z,7832
2016-04-13T16:35:24.447Z,7668
2016-04-13T16:36:24.434Z,8944
2016-04-13T16:37:24.421Z,9204
2016-04-13T16:38:24.392Z,9348
2016-04-13T16:39:24.380Z,7768
2016-04-13T16:40:24.383Z,5244
2016-04-13T16:41:24.386Z,7728
2016-04-13T16:42:24.356Z,5904
2016-04-13T16:43:24.344Z,4432
2016-04-13T16:44:24.361Z,6608
2016-04-13T16:45:24.319Z,5192
2016-04-13T16:46:24.305Z,6212
2016-04-13T16:47:24.292Z,5528
2016-04-13T16:48:24.279Z,4080
2016-04-13T16:49:24.266Z,6516
2016-04-13T16:50:24.268Z,6416
2016-04-13T16:51:24.240Z,4440
2016-04-13T16:52:24.274Z,4932
2016-04-13T16:53:24.308Z,8728
2016-04-13T16:54:24.217Z,9440
2016-04-13T16:55:24.220Z,12848
2016-04-13T16:56:24.191Z,10700
2016-04-13T16:57:24.256Z,9364
2016-04-13T16:58:24.149Z,8300
2016-04-13T16:59:24.168Z,8992
2016-04-13T17:00:24.140Z,10064
2016-04-13T17:01:24.143Z,5880
2016-04-13T17:02:24.145Z,7296
2016-04-13T17:03:24.117Z,5908
2016-04-13T17:04:24.135Z,9036
2016-04-13T17:05:24.090Z,8408
2016-04-13T17:06:24.078Z,4608
2016-04-13T17:07:24.049Z,7272
2016-04-13T17:08:24.036Z,8456
2016-04-13T17:09:24.086Z,6776
2016-04-13T17:10:24.229Z,3244
2016-04-13T17:11:24.013Z,5096
2016-04-13T17:12:24.000Z,4752
2016-04-13T17:13:24.019Z,3940
2016-04-13T17:14:24.005Z,3948
2016-04-13T17:15:23.961Z,3956
2016-04-13T17:16:23.994Z,4732
2016-04-13T17:17:23.935Z,4996
2016-04-13T17:18:23.922Z,5756
2016-04-13T17:19:23.924Z,7120
2016-04-13T17:20:23.912Z,7400
2016-04-13T17:21:23.899Z,7736
2016-04-13T17:22:23.885Z,8164
2016-04-13T17:23:23.904Z,8248
2016-04-13T17:24:23.860Z,8084
2016-04-13T17:25:23.847Z,8108
2016-04-13T17:26:23.835Z,8544
2016-04-13T17:27:23.884Z,8216
2016-04-13T17:28:23.809Z,8380
2016-04-13T17:29:23.796Z,7608
2016-04-13T17:30:23.814Z,6820
2016-04-13T17:31:23.770Z,6084
2016-04-13T17:32:23.787Z,5908
2016-04-13T17:33:23.759Z,5696
2016-04-13T17:34:23.746Z,5552
2016-04-13T17:35:23.656Z,5344
2016-04-13T17:36:23.736Z,5280
2016-04-13T17:37:23.723Z,5416
2016-04-13T17:38:23.694Z,5816
2016-04-13T17:39:23.728Z,6016
2016-04-13T17:40:23.669Z,5880
2016-04-13T17:41:23.686Z,5800
2016-04-13T17:42:23.674Z,5564
2016-04-13T17:43:23.645Z,5264
2016-04-13T17:44:23.616Z,5212
2016-04-13T17:45:23.683Z,4836
2016-04-13T17:46:23.450Z,4840
2016-04-13T17:47:23.625Z,4780
2016-04-13T17:48:23.581Z,4592
2016-04-13T17:49:23.568Z,4552
2016-04-13T17:50:23.539Z,4592
2016-04-13T17:51:23.589Z,4656
2016-04-13T17:52:23.529Z,4628
2016-04-13T17:53:23.516Z,4488
2016-04-13T17:54:23.504Z,4328
2016-04-13T17:55:23.490Z,4336
2016-04-13T17:56:23.477Z,4068
2016-04-13T17:57:23.480Z,3880
2016-04-13T17:58:23.452Z,3740
2016-04-13T17:59:23.439Z,3512
2016-04-13T18:00:23.457Z,3216
2016-04-13T18:01:23.413Z,3372
2016-04-13T18:02:23.400Z,3516
2016-04-13T18:03:23.403Z,3708
2016-04-13T18:04:23.390Z,3752
2016-04-13T18:05:23.392Z,3720
2016-04-13T18:06:23.379Z,3768
2016-04-13T18:07:23.335Z,3720
2016-04-13T18:08:23.369Z,3592
2016-04-13T18:09:23.325Z,3496
2016-04-13T18:10:23.296Z,3492
2016-04-13T18:11:23.299Z,3372
2016-04-13T18:12:23.286Z,3372
2016-04-13T18:13:23.257Z,3776
2016-04-13T18:14:23.275Z,3448
2016-04-13T18:15:23.263Z,3224
2016-04-13T18:16:23.219Z,3396
2016-04-13T18:17:23.236Z,3344
2016-04-13T18:18:23.239Z,2948
2016-04-13T18:19:23.180Z,2244
2016-04-13T18:20:23.167Z,1820
2016-04-13T18:21:23.169Z,1504
2016-04-13T18:22:23.141Z,1356
2016-04-13T18:23:23.144Z,1204
2016-04-13T18:24:23.130Z,1152
2016-04-13T18:25:23.118Z,1128
2016-04-13T18:26:23.090Z,1040
2016-04-13T18:27:23.092Z,984
2016-04-13T18:28:23.079Z,892
2016-04-13T18:29:23.081Z,868
2016-04-13T18:30:23.068Z,872
2016-04-13T18:31:23.024Z,848
2016-04-13T18:32:23.027Z,816
2016-04-13T18:33:23.015Z,808
2016-04-13T18:34:23.001Z,860
2016-04-13T18:35:22.989Z,840
2016-04-13T18:36:22.975Z,816
2016-04-13T18:37:22.962Z,940
2016-04-13T18:38:22.950Z,996
2016-04-13T18:39:22.952Z,936
2016-04-13T18:40:22.940Z,900
2016-04-13T18:41:22.895Z,880
2016-04-13T18:42:22.914Z,820
2016-04-13T18:43:22.886Z,844
2016-04-13T18:44:22.904Z,884
2016-04-13T18:45:22.859Z,940
2016-04-13T18:46:22.847Z,884
2016-04-13T18:47:22.833Z,812
2016-04-13T18:48:22.805Z,768
2016-04-13T18:49:22.807Z,748
2016-04-13T18:50:22.779Z,732
2016-04-13T18:51:22.782Z,704
2016-04-13T18:52:22.752Z,668
2016-04-13T18:53:22.772Z,596
2016-04-13T18:54:22.743Z,512
2016-04-13T18:55:22.714Z,424
2016-04-13T18:56:22.716Z,376
2016-04-13T18:57:22.719Z,340
2016-04-13T18:58:22.691Z,316
2016-04-13T18:59:22.662Z,292
2016-04-13T19:00:22.665Z,280
2016-04-13T19:01:22.652Z,252
2016-04-13T19:02:22.639Z,236
2016-04-13T19:03:22.610Z,228
2016-04-13T19:04:22.597Z,212
2016-04-13T19:05:22.600Z,196
2016-04-13T19:06:22.587Z,180
2016-04-13T19:07:22.559Z,164
2016-04-13T19:08:22.546Z,152
2016-04-13T19:09:22.533Z,140
2016-04-13T19:10:22.520Z,132
2016-04-13T19:11:22.506Z,116
2016-04-13T19:12:22.494Z,104
2016-04-13T19:13:22.481Z,92
2016-04-13T19:14:22.609Z,76
2016-04-13T19:15:22.456Z,68
2016-04-13T19:16:22.443Z,56
2016-04-13T19:17:22.445Z,48
2016-04-13T19:18:22.401Z,44
2016-04-13T19:19:22.420Z,36
2016-04-13T19:20:22.391Z,28
2016-04-13T19:21:22.378Z,24
2016-04-13T19:22:22.365Z,20
2016-04-13T19:23:22.368Z,16
2016-04-13T19:24:22.354Z,12
2016-04-13T19:25:22.326Z,12
2016-04-13T19:26:22.297Z,8
2016-04-13T19:27:22.299Z,8
2016-04-13T19:28:22.271Z,8
2016-04-13T19:29:22.259Z,4
2016-04-13T19:30:22.262Z,4
2016-04-13T19:31:22.233Z,4
2016-04-13T19:32:22.220Z,4
2016-04-13T19:33:22.207Z,0
2016-04-13T19:34:22.193Z,4
2016-04-13T19:35:22.181Z,4
2016-04-13T19:36:22.184Z,0
2016-04-13T19:37:22.156Z,0
2016-04-13T19:38:22.158Z,0
2016-04-13T19:39:22.270Z,0
2016-04-13T19:40:22.132Z,0
2016-04-13T19:41:22.104Z,0
2016-04-13T19:42:22.107Z,0
2016-04-13T19:43:22.092Z,0
2016-04-13T19:44:22.065Z,0
2016-04-13T19:45:22.083Z,0
2016-04-13T19:46:25.992Z,0
2016-04-13T19:47:22.072Z,0
2016-04-13T19:48:23.294Z,0
2016-04-13T19:49:22.000Z,0
2016-04-13T19:50:21.986Z,0
2016-04-13T19:51:24.734Z,0
2016-04-13T19:52:21.986Z,0
2016-04-13T19:53:21.942Z,0
2016-04-13T19:54:21.680Z,0
2016-04-13T19:55:21.949Z,0
2016-04-13T19:56:23.014Z,0
2016-04-13T19:57:21.892Z,0
2016-04-13T19:58:21.723Z,0
2016-04-13T19:59:21.882Z,0
2016-04-13T20:00:21.869Z,0
2016-04-13T20:01:23.091Z,0
2016-04-13T20:02:21.811Z,0
2016-04-13T20:03:21.799Z,0
2016-04-13T20:04:21.785Z,0
2016-04-13T20:05:21.788Z,0
2016-04-13T20:06:23.213Z,0
2016-04-13T20:07:21.756Z,0
2016-04-13T20:08:21.835Z,0
2016-04-13T20:09:21.792Z,0
2016-04-13T20:10:21.863Z,0
2016-04-13T20:11:22.816Z,0
2016-04-13T20:12:21.904Z,0
2016-04-13T20:13:21.906Z,0
2016-04-13T20:14:21.909Z,0
2016-04-13T20:15:21.928Z,0
2016-04-13T20:16:23.462Z,0
2016-04-13T20:17:21.915Z,0
2016-04-13T20:18:21.907Z,0
2016-04-13T20:19:21.900Z,0
2016-04-13T20:20:21.893Z,0
2016-04-13T20:21:22.901Z,0
2016-04-13T20:22:21.893Z,0
2016-04-13T20:23:21.726Z,0
2016-04-13T20:24:21.948Z,0
2016-04-13T20:25:21.859Z,0
2016-04-13T20:26:22.598Z,0
2016-04-13T20:27:21.805Z,0
2016-04-13T20:28:21.794Z,0
2016-04-13T20:29:21.797Z,0
2016-04-13T20:30:21.769Z,0
2016-04-13T20:31:22.819Z,0
2016-04-13T20:32:21.744Z,0
2016-04-13T20:33:21.747Z,0
2016-04-13T20:34:21.750Z,0
2016-04-13T20:35:21.723Z,0
2016-04-13T20:36:21.585Z,0
2016-04-13T20:37:21.698Z,0
2016-04-13T20:38:21.732Z,0
2016-04-13T20:39:21.765Z,0
2016-04-13T20:40:21.659Z,0
2016-04-13T20:41:21.318Z,0
2016-04-13T20:42:21.601Z,0
2016-04-13T20:43:21.604Z,0
2016-04-13T20:44:21.607Z,0
2016-04-13T20:45:21.578Z,0
2016-04-13T20:46:21.565Z,0
2016-04-13T20:47:21.553Z,0
2016-04-13T20:48:21.523Z,0
2016-04-13T20:49:21.511Z,0
2016-04-13T20:50:21.498Z,0
2016-04-13T20:51:21.485Z,0
2016-04-13T20:52:21.503Z,0
2016-04-13T20:53:21.475Z,0
2016-04-13T20:54:21.430Z,0
2016-04-13T20:55:21.433Z,0
2016-04-13T20:56:21.436Z,0
2016-04-13T20:57:21.422Z,0
2016-04-13T20:58:21.395Z,0
2016-04-13T20:59:21.382Z,0
2016-04-13T21:00:21.572Z,0
2016-04-13T21:01:21.356Z,0
2016-04-13T21:02:21.343Z,0
2016-04-13T21:03:21.330Z,0
2016-04-13T21:04:21.317Z,0
2016-04-13T21:05:21.305Z,0
2016-04-13T21:06:21.307Z,0
2016-04-13T21:07:21.279Z,0
2016-04-13T21:08:21.125Z,0
2016-04-13T21:09:21.487Z,0
2016-04-13T21:10:21.224Z,0
2016-04-13T21:11:21.211Z,0
2016-04-13T21:12:21.198Z,0
2016-04-13T21:13:21.201Z,0
2016-04-13T21:14:21.173Z,0
2016-04-13T21:15:21.159Z,0
2016-04-13T21:16:21.162Z,0
2016-04-13T21:17:21.149Z,0
2016-04-13T21:18:20.339Z,0
2016-04-13T21:19:21.107Z,0
2016-04-13T21:20:21.095Z,0
2016-04-13T21:21:21.082Z,0
2016-04-13T21:22:21.053Z,0
2016-04-13T21:23:21.056Z,0
2016-04-13T21:24:21.167Z,0
2016-04-13T21:25:21.045Z,0
2016-04-13T21:26:21.017Z,0
2016-04-13T21:27:20.988Z,0
2016-04-13T21:28:20.991Z,0
2016-04-13T21:29:20.978Z,0
2016-04-13T21:30:20.949Z,0
2016-04-13T21:31:20.936Z,0
2016-04-13T21:32:20.923Z,0
2016-04-13T21:33:20.911Z,0
2016-04-13T21:34:20.882Z,0
2016-04-13T21:35:20.900Z,0
2016-04-13T21:36:20.871Z,0
2016-04-13T21:37:20.860Z,0
2016-04-13T21:38:20.846Z,0
2016-04-13T21:39:20.849Z,0
2016-04-13T21:40:20.804Z,0
2016-04-13T21:41:20.807Z,0
2016-04-13T21:42:20.810Z,0
2016-04-13T21:43:20.765Z,0
2016-04-13T21:44:20.768Z,0
2016-04-13T21:45:20.771Z,0
2016-04-13T21:46:20.743Z,0
2016-04-13T21:47:20.714Z,0
2016-04-13T21:48:20.701Z,0
2016-04-13T21:49:20.688Z,0
2016-04-13T21:50:20.675Z,0
2016-04-13T21:51:20.662Z,0
2016-04-13T21:52:20.650Z,0
2016-04-13T21:53:20.636Z,0
2016-04-13T21:54:20.623Z,0
2016-04-13T21:55:20.611Z,0
2016-04-13T21:56:20.598Z,0
2016-04-13T21:57:20.569Z,0
2016-04-13T21:58:20.556Z,0
2016-04-13T21:59:20.559Z,0
2016-04-13T22:00:20.530Z,0
2016-04-13T22:01:20.517Z,0
2016-04-13T22:02:20.519Z,0
2016-04-13T22:03:20.491Z,0
2016-04-13T22:04:20.478Z,0
2016-04-13T22:05:20.466Z,0
2016-04-13T22:06:20.453Z,0
2016-04-13T22:07:20.455Z,0
2016-04-13T22:08:20.442Z,0
2016-04-13T22:09:20.413Z,0
2016-04-13T22:10:20.401Z,0
2016-04-13T22:11:20.388Z,0
2016-04-13T22:12:20.360Z,0
2016-04-13T22:13:20.362Z,0
2016-04-13T22:14:20.348Z,0
2016-04-13T22:15:20.336Z,0
2016-04-13T22:16:20.324Z,0
2016-04-13T22:17:20.295Z,0